sensor_id;sensor_type;location;lat;lon;timestamp;pressure;altitude;pressure_sealevel;temperature;humidity
66176;BME280;52977;44.816;20.538;2022-08-04T00:00:12;99726.97;;;27.09;50.57
66176;BME280;52977;44.816;20.538;2022-08-04T00:09:00;99697.94;;;26.83;50.40
66176;BME280;52977;44.816;20.538;2022-08-04T00:11:04;99717.69;;;26.96;50.18
66176;BME280;52977;44.816;20.538;2022-08-04T00:13:39;99716.44;;;26.97;49.63
66176;BME280;52977;44.816;20.538;2022-08-04T00:16:08;99722.13;;;26.93;49.08
66176;BME280;52977;44.816;20.538;2022-08-04T00:18:41;99720.91;;;26.94;49.10
66176;BME280;52977;44.816;20.538;2022-08-04T00:21:11;99719.16;;;27.01;49.48
66176;BME280;52977;44.816;20.538;2022-08-04T00:23:38;99705.78;;;26.92;49.62
66176;BME280;52977;44.816;20.538;2022-08-04T00:26:07;99715.22;;;26.98;49.88
66176;BME280;52977;44.816;20.538;2022-08-04T00:28:35;99681.75;;;26.74;49.61
66176;BME280;52977;44.816;20.538;2022-08-04T00:31:03;99720.13;;;26.94;49.85
66176;BME280;52977;44.816;20.538;2022-08-04T00:33:29;99712.66;;;26.87;49.75
66176;BME280;52977;44.816;20.538;2022-08-04T00:35:56;99717.81;;;26.89;49.77
66176;BME280;52977;44.816;20.538;2022-08-04T00:38:23;99722.31;;;26.86;49.51
66176;BME280;52977;44.816;20.538;2022-08-04T00:43:36;99726.81;;;26.80;49.69
66176;BME280;52977;44.816;20.538;2022-08-04T00:49:27;99731.97;;;26.82;49.96
66176;BME280;52977;44.816;20.538;2022-08-04T00:57:29;99729.72;;;26.76;51.21
66176;BME280;52977;44.816;20.538;2022-08-04T01:06:14;99727.09;;;26.66;51.72
66176;BME280;52977;44.816;20.538;2022-08-04T01:08:59;99718.06;;;26.58;52.53
66176;BME280;52977;44.816;20.538;2022-08-04T01:14:33;99720.84;;;26.58;52.26
66176;BME280;52977;44.816;20.538;2022-08-04T01:17:09;99717.19;;;26.61;52.88
66176;BME280;52977;44.816;20.538;2022-08-04T01:19:53;99679.13;;;26.27;53.71
66176;BME280;52977;44.816;20.538;2022-08-04T01:30:40;99712.31;;;26.45;55.03
66176;BME280;52977;44.816;20.538;2022-08-04T01:33:13;99722.66;;;26.48;55.05
66176;BME280;52977;44.816;20.538;2022-08-04T01:35:47;99713.19;;;26.42;55.68
66176;BME280;52977;44.816;20.538;2022-08-04T01:38:28;99702.16;;;26.35;55.85
66176;BME280;52977;44.816;20.538;2022-08-04T01:41:06;99714.06;;;26.39;56.53
66176;BME280;52977;44.816;20.538;2022-08-04T01:43:33;99717.97;;;26.41;57.13
66176;BME280;52977;44.816;20.538;2022-08-04T01:46:02;99719.56;;;26.42;56.86
66176;BME280;52977;44.816;20.538;2022-08-04T01:48:29;99704.94;;;26.35;57.05
66176;BME280;52977;44.816;20.538;2022-08-04T01:51:05;99716.44;;;26.40;57.56
66176;BME280;52977;44.816;20.538;2022-08-04T01:53:33;99720.00;;;26.41;57.41
66176;BME280;52977;44.816;20.538;2022-08-04T01:56:01;99723.19;;;26.43;57.92
66176;BME280;52977;44.816;20.538;2022-08-04T01:58:31;99707.22;;;26.40;58.21
66176;BME280;52977;44.816;20.538;2022-08-04T02:01:05;99714.06;;;26.39;58.19
66176;BME280;52977;44.816;20.538;2022-08-04T02:03:33;99708.97;;;26.34;58.41
66176;BME280;52977;44.816;20.538;2022-08-04T02:06:24;99710.09;;;26.36;58.01
66176;BME280;52977;44.816;20.538;2022-08-04T02:09:22;99708.97;;;26.34;59.04
66176;BME280;52977;44.816;20.538;2022-08-04T02:12:04;99710.66;;;26.27;58.99
66176;BME280;52977;44.816;20.538;2022-08-04T02:14:43;99681.47;;;26.08;59.35
66176;BME280;52977;44.816;20.538;2022-08-04T02:17:15;99712.09;;;26.16;60.68
66176;BME280;52977;44.816;20.538;2022-08-04T02:22:17;99711.13;;;26.02;60.58
66176;BME280;52977;44.816;20.538;2022-08-04T02:24:48;99685.50;;;25.84;60.91
66176;BME280;52977;44.816;20.538;2022-08-04T02:27:15;99719.28;;;26.17;60.36
66176;BME280;52977;44.816;20.538;2022-08-04T02:29:53;99718.41;;;26.20;60.64
66176;BME280;52977;44.816;20.538;2022-08-04T02:32:28;99717.13;;;26.04;61.71
66176;BME280;52977;44.816;20.538;2022-08-04T02:35:03;99711.53;;;26.04;61.55
66176;BME280;52977;44.816;20.538;2022-08-04T02:37:31;99715.69;;;25.92;62.59
66176;BME280;52977;44.816;20.538;2022-08-04T02:40:04;99720.75;;;25.78;63.08
66176;BME280;52977;44.816;20.538;2022-08-04T02:42:32;99723.03;;;25.83;63.29
66176;BME280;52977;44.816;20.538;2022-08-04T02:44:59;99722.09;;;25.69;64.41
66176;BME280;52977;44.816;20.538;2022-08-04T02:47:26;99721.84;;;25.60;68.92
66176;BME280;52977;44.816;20.538;2022-08-04T02:49:53;99716.00;;;25.51;71.28
66176;BME280;52977;44.816;20.538;2022-08-04T02:52:23;99717.59;;;25.52;72.50
66176;BME280;52977;44.816;20.538;2022-08-04T02:54:54;99716.22;;;25.64;72.26
66176;BME280;52977;44.816;20.538;2022-08-04T02:57:22;99716.09;;;25.71;73.82
66176;BME280;52977;44.816;20.538;2022-08-04T03:02:21;99705.94;;;25.57;75.26
66176;BME280;52977;44.816;20.538;2022-08-04T03:05:12;99718.75;;;25.54;76.76
66176;BME280;52977;44.816;20.538;2022-08-04T03:24:24;99726.56;;;25.63;76.31
66176;BME280;52977;44.816;20.538;2022-08-04T03:46:28;99726.47;;;25.47;77.35
66176;BME280;52977;44.816;20.538;2022-08-04T03:51:52;99693.63;;;25.27;76.04
66176;BME280;52977;44.816;20.538;2022-08-04T04:18:15;99747.31;;;25.11;78.78
66176;BME280;52977;44.816;20.538;2022-08-04T04:26:57;99756.53;;;25.08;83.11
66176;BME280;52977;44.816;20.538;2022-08-04T04:35:10;99758.75;;;25.20;78.63
66176;BME280;52977;44.816;20.538;2022-08-04T04:37:42;99750.31;;;25.24;76.61
66176;BME280;52977;44.816;20.538;2022-08-04T04:43:41;99759.03;;;24.99;80.54
66176;BME280;52977;44.816;20.538;2022-08-04T04:46:37;99770.31;;;24.91;84.75
66176;BME280;52977;44.816;20.538;2022-08-04T04:49:30;99777.09;;;24.90;86.53
66176;BME280;52977;44.816;20.538;2022-08-04T04:54:33;99751.75;;;24.78;87.84
66176;BME280;52977;44.816;20.538;2022-08-04T04:57:10;99777.06;;;24.94;88.48
66176;BME280;52977;44.816;20.538;2022-08-04T05:00:02;99780.94;;;25.00;87.63
66176;BME280;52977;44.816;20.538;2022-08-04T05:13:27;99786.31;;;24.87;93.26
66176;BME280;52977;44.816;20.538;2022-08-04T05:16:00;99789.84;;;24.91;91.56
66176;BME280;52977;44.816;20.538;2022-08-04T05:18:32;99789.94;;;24.84;93.98
66176;BME280;52977;44.816;20.538;2022-08-04T05:21:20;99788.47;;;24.72;94.09
66176;BME280;52977;44.816;20.538;2022-08-04T05:23:56;99785.66;;;24.76;92.55
66176;BME280;52977;44.816;20.538;2022-08-04T05:26:29;99797.06;;;24.89;91.25
66176;BME280;52977;44.816;20.538;2022-08-04T05:28:57;99790.59;;;24.96;89.93
66176;BME280;52977;44.816;20.538;2022-08-04T05:31:31;99799.81;;;24.93;89.10
66176;BME280;52977;44.816;20.538;2022-08-04T05:34:11;99769.03;;;24.96;87.72
66176;BME280;52977;44.816;20.538;2022-08-04T05:36:47;99802.56;;;25.27;86.91
66176;BME280;52977;44.816;20.538;2022-08-04T05:39:18;99800.31;;;25.15;88.48
66176;BME280;52977;44.816;20.538;2022-08-04T05:41:44;99824.19;;;24.88;92.89
66176;BME280;52977;44.816;20.538;2022-08-04T05:44:12;99789.22;;;24.77;92.82
66176;BME280;52977;44.816;20.538;2022-08-04T05:46:39;99798.75;;;24.83;94.30
66176;BME280;52977;44.816;20.538;2022-08-04T05:49:07;99807.06;;;24.86;94.10
66176;BME280;52977;44.816;20.538;2022-08-04T05:51:34;99811.09;;;24.82;95.41
66176;BME280;52977;44.816;20.538;2022-08-04T05:54:01;99812.97;;;24.92;93.75
66176;BME280;52977;44.816;20.538;2022-08-04T05:56:27;99781.16;;;24.86;91.76
66176;BME280;52977;44.816;20.538;2022-08-04T05:58:54;99792.41;;;25.10;89.24
66176;BME280;52977;44.816;20.538;2022-08-04T06:01:20;99799.03;;;25.23;88.14
66176;BME280;52977;44.816;20.538;2022-08-04T06:03:48;99812.38;;;25.39;86.85
66176;BME280;52977;44.816;20.538;2022-08-04T06:06:16;99806.06;;;25.35;85.92
66176;BME280;52977;44.816;20.538;2022-08-04T06:08:43;99823.81;;;25.17;89.44
66176;BME280;52977;44.816;20.538;2022-08-04T06:11:09;99813.44;;;25.18;89.10
66176;BME280;52977;44.816;20.538;2022-08-04T06:13:42;99818.84;;;25.32;88.14
66176;BME280;52977;44.816;20.538;2022-08-04T06:16:10;99824.84;;;25.34;87.81
66176;BME280;52977;44.816;20.538;2022-08-04T06:18:38;99827.56;;;25.38;84.45
66176;BME280;52977;44.816;20.538;2022-08-04T06:21:06;99801.75;;;25.27;81.72
66176;BME280;52977;44.816;20.538;2022-08-04T06:23:36;99819.56;;;25.40;80.38
66176;BME280;52977;44.816;20.538;2022-08-04T06:26:04;99815.53;;;25.41;79.33
66176;BME280;52977;44.816;20.538;2022-08-04T06:28:31;99809.91;;;25.45;79.23
66176;BME280;52977;44.816;20.538;2022-08-04T06:30:58;99816.22;;;25.49;79.17
66176;BME280;52977;44.816;20.538;2022-08-04T06:33:30;99820.13;;;25.55;79.46
66176;BME280;52977;44.816;20.538;2022-08-04T06:36:03;99818.88;;;25.59;79.79
66176;BME280;52977;44.816;20.538;2022-08-04T06:38:31;99790.78;;;25.43;79.28
66176;BME280;52977;44.816;20.538;2022-08-04T06:40:58;99791.19;;;25.41;77.78
66176;BME280;52977;44.816;20.538;2022-08-04T06:43:28;99826.28;;;25.70;76.60
66176;BME280;52977;44.816;20.538;2022-08-04T06:45:56;99825.41;;;25.76;76.05
66176;BME280;52977;44.816;20.538;2022-08-04T06:48:23;99813.59;;;25.65;76.47
66176;BME280;52977;44.816;20.538;2022-08-04T06:50:49;99821.09;;;25.72;75.28
66176;BME280;52977;44.816;20.538;2022-08-04T06:53:17;99819.03;;;25.76;74.54
66176;BME280;52977;44.816;20.538;2022-08-04T06:55:45;99799.97;;;25.67;71.31
66176;BME280;52977;44.816;20.538;2022-08-04T06:58:12;99815.56;;;25.92;69.59
66176;BME280;52977;44.816;20.538;2022-08-04T07:00:41;99823.06;;;25.99;72.82
66176;BME280;52977;44.816;20.538;2022-08-04T07:03:08;99835.91;;;25.92;77.34
66176;BME280;52977;44.816;20.538;2022-08-04T07:05:35;99821.72;;;25.83;77.77
66176;BME280;52977;44.816;20.538;2022-08-04T07:08:01;99827.00;;;25.78;79.96
66176;BME280;52977;44.816;20.538;2022-08-04T07:10:27;99833.84;;;25.73;79.71
66176;BME280;52977;44.816;20.538;2022-08-04T07:12:55;99830.25;;;25.72;76.16
66176;BME280;52977;44.816;20.538;2022-08-04T07:15:22;99833.97;;;25.89;77.71
66176;BME280;52977;44.816;20.538;2022-08-04T07:17:48;99835.50;;;25.94;76.75
66176;BME280;52977;44.816;20.538;2022-08-04T07:20:15;99831.00;;;26.00;76.57
66176;BME280;52977;44.816;20.538;2022-08-04T07:22:41;99830.50;;;26.09;76.87
66176;BME280;52977;44.816;20.538;2022-08-04T07:25:09;99824.03;;;26.12;76.31
66176;BME280;52977;44.816;20.538;2022-08-04T07:27:35;99823.63;;;26.14;73.52
66176;BME280;52977;44.816;20.538;2022-08-04T07:30:04;99825.00;;;26.25;74.76
66176;BME280;52977;44.816;20.538;2022-08-04T07:32:31;99826.59;;;26.26;76.05
66176;BME280;52977;44.816;20.538;2022-08-04T07:34:57;99800.44;;;26.13;75.83
66176;BME280;52977;44.816;20.538;2022-08-04T07:37:23;99813.88;;;26.22;74.58
66176;BME280;52977;44.816;20.538;2022-08-04T07:39:49;99828.41;;;26.37;73.96
66176;BME280;52977;44.816;20.538;2022-08-04T07:42:18;99827.78;;;26.49;73.44
66176;BME280;52977;44.816;20.538;2022-08-04T07:44:44;99794.41;;;26.38;74.27
66176;BME280;52977;44.816;20.538;2022-08-04T07:47:10;99835.47;;;26.65;71.74
66176;BME280;52977;44.816;20.538;2022-08-04T07:49:36;99802.66;;;26.46;72.37
66176;BME280;52977;44.816;20.538;2022-08-04T07:52:02;99814.81;;;26.59;71.74
66176;BME280;52977;44.816;20.538;2022-08-04T07:54:28;99835.13;;;26.63;71.23
66176;BME280;52977;44.816;20.538;2022-08-04T07:56:54;99817.03;;;26.48;70.30
66176;BME280;52977;44.816;20.538;2022-08-04T07:59:20;99821.47;;;26.45;70.57
66176;BME280;52977;44.816;20.538;2022-08-04T08:01:46;99832.94;;;26.51;70.69
66176;BME280;52977;44.816;20.538;2022-08-04T08:04:12;99845.16;;;26.60;68.66
66176;BME280;52977;44.816;20.538;2022-08-04T08:06:39;99843.81;;;26.69;69.80
66176;BME280;52977;44.816;20.538;2022-08-04T08:09:10;99827.22;;;26.58;70.80
66176;BME280;52977;44.816;20.538;2022-08-04T08:11:36;99847.03;;;26.67;73.76
66176;BME280;52977;44.816;20.538;2022-08-04T08:14:01;99804.66;;;26.45;76.45
66176;BME280;52977;44.816;20.538;2022-08-04T08:16:27;99838.22;;;26.69;78.47
66176;BME280;52977;44.816;20.538;2022-08-04T08:18:54;99842.53;;;26.73;77.47
66176;BME280;52977;44.816;20.538;2022-08-04T08:21:20;99846.78;;;26.82;76.41
66176;BME280;52977;44.816;20.538;2022-08-04T08:23:49;99848.38;;;26.83;75.72
66176;BME280;52977;44.816;20.538;2022-08-04T08:26:15;99850.72;;;26.84;74.77
66176;BME280;52977;44.816;20.538;2022-08-04T08:28:41;99849.44;;;26.89;73.25
66176;BME280;52977;44.816;20.538;2022-08-04T08:31:07;99846.13;;;26.94;71.01
66176;BME280;52977;44.816;20.538;2022-08-04T08:33:33;99851.41;;;26.92;71.96
66176;BME280;52977;44.816;20.538;2022-08-04T08:36:18;99851.69;;;26.98;70.41
66176;BME280;52977;44.816;20.538;2022-08-04T08:42:04;99846.72;;;27.05;68.17
66176;BME280;52977;44.816;20.538;2022-08-04T08:59:14;99854.03;;;27.39;63.80
66176;BME280;52977;44.816;20.538;2022-08-04T09:05:04;99852.56;;;27.51;60.31
66176;BME280;52977;44.816;20.538;2022-08-04T09:10:17;99843.53;;;27.60;60.51
66176;BME280;52977;44.816;20.538;2022-08-04T09:15:38;99852.22;;;27.66;61.72
66176;BME280;52977;44.816;20.538;2022-08-04T09:20:52;99851.97;;;27.76;63.92
66176;BME280;52977;44.816;20.538;2022-08-04T09:23:33;99856.56;;;27.87;62.53
66176;BME280;52977;44.816;20.538;2022-08-04T09:26:10;99854.88;;;27.89;62.64
66176;BME280;52977;44.816;20.538;2022-08-04T09:34:38;99853.66;;;27.90;60.05
66176;BME280;52977;44.816;20.538;2022-08-04T09:37:24;99841.44;;;28.01;57.66
66176;BME280;52977;44.816;20.538;2022-08-04T09:40:05;99846.59;;;28.02;55.26
66176;BME280;52977;44.816;20.538;2022-08-04T09:45:42;99777.59;;;27.72;52.06
66176;BME280;52977;44.816;20.538;2022-08-04T09:48:16;99835.44;;;28.32;51.47
66176;BME280;52977;44.816;20.538;2022-08-04T09:50:44;99830.25;;;28.30;48.39
66176;BME280;52977;44.816;20.538;2022-08-04T10:01:09;99839.09;;;28.28;49.15
66176;BME280;52977;44.816;20.538;2022-08-04T10:03:40;99837.59;;;28.40;47.44
66176;BME280;52977;44.816;20.538;2022-08-04T10:20:10;99835.16;;;28.72;40.00
66176;BME280;52977;44.816;20.538;2022-08-04T10:22:42;99834.75;;;28.57;40.36
66176;BME280;52977;44.816;20.538;2022-08-04T10:28:11;99831.09;;;28.43;41.89
66176;BME280;52977;44.816;20.538;2022-08-04T10:30:40;99818.97;;;28.46;41.31
66176;BME280;52977;44.816;20.538;2022-08-04T10:33:30;99819.91;;;28.56;41.67
66176;BME280;52977;44.816;20.538;2022-08-04T10:36:03;99822.91;;;28.49;42.00
66176;BME280;52977;44.816;20.538;2022-08-04T10:38:56;99824.22;;;28.61;41.14
66176;BME280;52977;44.816;20.538;2022-08-04T10:44:21;99827.63;;;29.11;40.56
66176;BME280;52977;44.816;20.538;2022-08-04T10:47:00;99816.44;;;29.24;41.62
66176;BME280;52977;44.816;20.538;2022-08-04T10:49:37;99800.09;;;29.19;40.85
66176;BME280;52977;44.816;20.538;2022-08-04T10:52:13;99814.84;;;29.36;39.89
66176;BME280;52977;44.816;20.538;2022-08-04T10:57:33;99801.59;;;29.36;39.50
66176;BME280;52977;44.816;20.538;2022-08-04T11:00:18;99794.06;;;29.33;40.29
66176;BME280;52977;44.816;20.538;2022-08-04T11:02:57;99813.84;;;29.42;37.83
66176;BME280;52977;44.816;20.538;2022-08-04T11:05:30;99808.81;;;29.50;39.01
66176;BME280;52977;44.816;20.538;2022-08-04T11:08:04;99817.34;;;29.59;39.42
66176;BME280;52977;44.816;20.538;2022-08-04T11:10:42;99809.34;;;29.58;39.56
66176;BME280;52977;44.816;20.538;2022-08-04T11:13:10;99800.13;;;29.57;39.83
66176;BME280;52977;44.816;20.538;2022-08-04T11:15:46;99810.47;;;29.73;39.58
66176;BME280;52977;44.816;20.538;2022-08-04T11:18:22;99807.88;;;29.66;39.51
66176;BME280;52977;44.816;20.538;2022-08-04T11:20:58;99809.78;;;29.69;39.33
66176;BME280;52977;44.816;20.538;2022-08-04T11:23:32;99803.50;;;29.65;39.60
66176;BME280;52977;44.816;20.538;2022-08-04T11:26:36;99800.91;;;29.58;39.90
66176;BME280;52977;44.816;20.538;2022-08-04T11:29:11;99803.38;;;29.69;39.57
66176;BME280;52977;44.816;20.538;2022-08-04T11:31:42;99798.91;;;29.84;38.48
66176;BME280;52977;44.816;20.538;2022-08-04T11:34:23;99800.34;;;29.89;38.84
66176;BME280;52977;44.816;20.538;2022-08-04T11:37:20;99795.78;;;30.04;39.19
66176;BME280;52977;44.816;20.538;2022-08-04T11:40:11;99781.38;;;30.15;38.58
66176;BME280;52977;44.816;20.538;2022-08-04T11:42:41;99764.28;;;30.09;38.05
66176;BME280;52977;44.816;20.538;2022-08-04T11:45:12;99774.13;;;30.27;37.67
66176;BME280;52977;44.816;20.538;2022-08-04T11:50:22;99775.97;;;30.43;36.99
66176;BME280;52977;44.816;20.538;2022-08-04T11:52:52;99762.47;;;30.38;37.06
66176;BME280;52977;44.816;20.538;2022-08-04T11:55:20;99770.66;;;30.45;36.80
66176;BME280;52977;44.816;20.538;2022-08-04T11:57:47;99761.66;;;30.50;36.85
66176;BME280;52977;44.816;20.538;2022-08-04T12:00:15;99749.25;;;30.47;36.99
66176;BME280;52977;44.816;20.538;2022-08-04T12:05:26;99755.41;;;30.77;36.06
66176;BME280;52977;44.816;20.538;2022-08-04T12:12:52;99755.84;;;30.98;36.24
66176;BME280;52977;44.816;20.538;2022-08-04T12:15:29;99758.88;;;31.04;35.90
66176;BME280;52977;44.816;20.538;2022-08-04T12:18:16;99748.69;;;31.06;36.37
66176;BME280;52977;44.816;20.538;2022-08-04T12:20:48;99735.53;;;31.03;35.55
66176;BME280;52977;44.816;20.538;2022-08-04T12:23:20;99743.69;;;31.10;36.25
66176;BME280;52977;44.816;20.538;2022-08-04T12:25:49;99744.69;;;31.16;34.79
66176;BME280;52977;44.816;20.538;2022-08-04T12:28:32;99740.63;;;31.17;35.08
66176;BME280;52977;44.816;20.538;2022-08-04T12:31:10;99742.22;;;31.28;34.24
66176;BME280;52977;44.816;20.538;2022-08-04T12:33:52;99750.72;;;31.37;34.80
66176;BME280;52977;44.816;20.538;2022-08-04T12:39:30;99743.19;;;31.43;35.28
66176;BME280;52977;44.816;20.538;2022-08-04T12:42:12;99735.56;;;31.53;34.24
66176;BME280;52977;44.816;20.538;2022-08-04T12:44:41;99733.97;;;31.52;33.53
66176;BME280;52977;44.816;20.538;2022-08-04T12:47:10;99736.97;;;31.48;32.91
66176;BME280;52977;44.816;20.538;2022-08-04T12:49:38;99722.38;;;31.50;32.88
66176;BME280;52977;44.816;20.538;2022-08-04T12:52:07;99733.72;;;31.68;32.92
66176;BME280;52977;44.816;20.538;2022-08-04T12:54:34;99725.75;;;31.76;31.87
66176;BME280;52977;44.816;20.538;2022-08-04T12:57:05;99725.75;;;31.85;31.73
66176;BME280;52977;44.816;20.538;2022-08-04T12:59:44;99723.72;;;31.95;31.06
66176;BME280;52977;44.816;20.538;2022-08-04T13:02:29;99717.91;;;31.90;31.19
66176;BME280;52977;44.816;20.538;2022-08-04T13:04:59;99715.25;;;31.95;31.10
66176;BME280;52977;44.816;20.538;2022-08-04T13:07:35;99692.84;;;31.92;30.22
66176;BME280;52977;44.816;20.538;2022-08-04T13:10:11;99691.09;;;32.03;30.20
66176;BME280;52977;44.816;20.538;2022-08-04T13:12:39;99708.84;;;32.04;29.90
66176;BME280;52977;44.816;20.538;2022-08-04T13:15:17;99714.00;;;31.87;30.06
66176;BME280;52977;44.816;20.538;2022-08-04T13:18:12;99708.81;;;31.85;30.25
66176;BME280;52977;44.816;20.538;2022-08-04T13:20:38;99700.97;;;31.90;29.76
66176;BME280;52977;44.816;20.538;2022-08-04T13:23:10;99696.91;;;32.00;31.06
66176;BME280;52977;44.816;20.538;2022-08-04T13:25:40;99675.28;;;31.88;29.59
66176;BME280;52977;44.816;20.538;2022-08-04T13:28:19;99692.81;;;32.01;30.09
66176;BME280;52977;44.816;20.538;2022-08-04T13:30:47;99671.66;;;31.87;29.96
66176;BME280;52977;44.816;20.538;2022-08-04T13:33:14;99686.25;;;31.95;30.64
66176;BME280;52977;44.816;20.538;2022-08-04T13:35:44;99684.06;;;31.99;30.58
66176;BME280;52977;44.816;20.538;2022-08-04T13:38:11;99683.09;;;32.02;30.08
66176;BME280;52977;44.816;20.538;2022-08-04T13:40:40;99685.31;;;32.07;30.49
66176;BME280;52977;44.816;20.538;2022-08-04T13:43:08;99679.97;;;32.09;30.52
66176;BME280;52977;44.816;20.538;2022-08-04T13:45:35;99682.63;;;32.13;29.86
66176;BME280;52977;44.816;20.538;2022-08-04T13:48:02;99656.13;;;32.01;30.21
66176;BME280;52977;44.816;20.538;2022-08-04T13:50:30;99675.13;;;32.10;30.65
66176;BME280;52977;44.816;20.538;2022-08-04T13:52:59;99674.03;;;32.16;30.57
66176;BME280;52977;44.816;20.538;2022-08-04T13:55:33;99682.50;;;32.16;30.71
66176;BME280;52977;44.816;20.538;2022-08-04T13:58:22;99670.91;;;32.14;30.87
66176;BME280;52977;44.816;20.538;2022-08-04T14:01:17;99660.69;;;32.08;30.35
66176;BME280;52977;44.816;20.538;2022-08-04T14:06:17;99668.38;;;32.07;30.95
66176;BME280;52977;44.816;20.538;2022-08-04T14:11:21;99666.78;;;31.97;31.44
66176;BME280;52977;44.816;20.538;2022-08-04T14:13:47;99665.25;;;31.96;31.61
66176;BME280;52977;44.816;20.538;2022-08-04T14:16:18;99662.28;;;31.90;31.64
66176;BME280;52977;44.816;20.538;2022-08-04T14:18:45;99651.13;;;31.86;31.96
66176;BME280;52977;44.816;20.538;2022-08-04T14:21:12;99659.91;;;31.98;32.11
66176;BME280;52977;44.816;20.538;2022-08-04T14:23:42;99651.28;;;31.92;32.63
66176;BME280;52977;44.816;20.538;2022-08-04T14:26:18;99654.59;;;31.91;32.67
66176;BME280;52977;44.816;20.538;2022-08-04T14:28:45;99661.16;;;31.97;32.42
66176;BME280;52977;44.816;20.538;2022-08-04T14:31:23;99658.94;;;32.01;31.91
66176;BME280;52977;44.816;20.538;2022-08-04T14:33:50;99648.94;;;32.00;31.87
66176;BME280;52977;44.816;20.538;2022-08-04T14:36:16;99658.19;;;32.00;32.31
66176;BME280;52977;44.816;20.538;2022-08-04T14:38:54;99656.13;;;32.01;31.39
66176;BME280;52977;44.816;20.538;2022-08-04T14:41:25;99661.47;;;31.99;31.16
66176;BME280;52977;44.816;20.538;2022-08-04T14:43:54;99662.72;;;31.89;30.59
66176;BME280;52977;44.816;20.538;2022-08-04T14:46:21;99666.63;;;31.91;31.74
66176;BME280;52977;44.816;20.538;2022-08-04T14:49:03;99647.06;;;31.88;31.37
66176;BME280;52977;44.816;20.538;2022-08-04T14:51:34;99648.00;;;31.94;31.21
66176;BME280;52977;44.816;20.538;2022-08-04T14:54:01;99660.38;;;31.96;31.46
66176;BME280;52977;44.816;20.538;2022-08-04T14:56:27;99663.53;;;31.89;31.69
66176;BME280;52977;44.816;20.538;2022-08-04T14:59:09;99635.63;;;31.73;32.31
66176;BME280;52977;44.816;20.538;2022-08-04T15:01:36;99649.56;;;31.95;30.98
66176;BME280;52977;44.816;20.538;2022-08-04T15:04:03;99657.09;;;31.98;30.48
66176;BME280;52977;44.816;20.538;2022-08-04T15:06:30;99653.34;;;31.92;31.15
66176;BME280;52977;44.816;20.538;2022-08-04T15:09:01;99654.09;;;31.92;30.69
66176;BME280;52977;44.816;20.538;2022-08-04T15:11:27;99642.50;;;31.81;31.07
66176;BME280;52977;44.816;20.538;2022-08-04T15:13:56;99651.91;;;31.87;31.72
66176;BME280;52977;44.816;20.538;2022-08-04T15:16:24;99653.34;;;31.92;31.35
66176;BME280;52977;44.816;20.538;2022-08-04T15:18:51;99629.03;;;31.76;31.34
66176;BME280;52977;44.816;20.538;2022-08-04T15:21:17;99640.16;;;31.89;32.01
66176;BME280;52977;44.816;20.538;2022-08-04T15:23:44;99628.09;;;31.88;31.69
66176;BME280;52977;44.816;20.538;2022-08-04T15:26:16;99636.22;;;31.95;30.58
66176;BME280;52977;44.816;20.538;2022-08-04T15:28:47;99633.25;;;31.90;31.10
66176;BME280;52977;44.816;20.538;2022-08-04T15:31:15;99622.63;;;31.75;31.58
66176;BME280;52977;44.816;20.538;2022-08-04T15:33:41;99641.56;;;31.84;31.66
66176;BME280;52977;44.816;20.538;2022-08-04T15:44:42;99604.75;;;31.78;32.18
66176;BME280;52977;44.816;20.538;2022-08-04T15:47:13;99626.03;;;31.89;32.68
66176;BME280;52977;44.816;20.538;2022-08-04T15:49:39;99619.94;;;31.90;32.72
66176;BME280;52977;44.816;20.538;2022-08-04T15:52:11;99614.16;;;31.84;33.27
66176;BME280;52977;44.816;20.538;2022-08-04T15:54:38;99618.38;;;31.80;32.21
66176;BME280;52977;44.816;20.538;2022-08-04T15:57:05;99617.13;;;31.81;32.43
66176;BME280;52977;44.816;20.538;2022-08-04T16:02:38;99605.97;;;31.86;32.71
66176;BME280;52977;44.816;20.538;2022-08-04T16:07:59;99612.56;;;31.93;31.75
66176;BME280;52977;44.816;20.538;2022-08-04T16:13:11;99606.28;;;31.98;31.61
66176;BME280;52977;44.816;20.538;2022-08-04T16:21:02;99608.19;;;31.82;31.61
66176;BME280;52977;44.816;20.538;2022-08-04T16:23:54;99600.97;;;31.81;31.57
66176;BME280;52977;44.816;20.538;2022-08-04T16:26:42;99601.63;;;31.76;32.48
66176;BME280;52977;44.816;20.538;2022-08-04T16:34:35;99600.38;;;31.68;32.52
66176;BME280;52977;44.816;20.538;2022-08-04T16:37:07;99592.84;;;31.65;32.59
66176;BME280;52977;44.816;20.538;2022-08-04T16:39:33;99587.34;;;31.61;33.02
66176;BME280;52977;44.816;20.538;2022-08-04T16:41:59;99593.09;;;31.58;32.87
66176;BME280;52977;44.816;20.538;2022-08-04T16:44:35;99561.31;;;31.39;32.77
66176;BME280;52977;44.816;20.538;2022-08-04T16:47:04;99592.81;;;31.56;33.09
66176;BME280;52977;44.816;20.538;2022-08-04T16:49:31;99589.84;;;31.59;32.97
66176;BME280;52977;44.816;20.538;2022-08-04T16:52:01;99593.75;;;31.62;32.40
66176;BME280;52977;44.816;20.538;2022-08-04T16:54:31;99584.06;;;31.63;33.01
66176;BME280;52977;44.816;20.538;2022-08-04T16:56:58;99590.19;;;31.61;32.75
66176;BME280;52977;44.816;20.538;2022-08-04T16:59:24;99594.53;;;31.53;32.93
66176;BME280;52977;44.816;20.538;2022-08-04T17:01:52;99602.69;;;31.51;33.53
66176;BME280;52977;44.816;20.538;2022-08-04T17:04:32;99593.88;;;31.40;33.87
66176;BME280;52977;44.816;20.538;2022-08-04T17:07:03;99591.38;;;31.32;33.95
66176;BME280;52977;44.816;20.538;2022-08-04T17:09:30;99570.34;;;31.06;34.96
66176;BME280;52977;44.816;20.538;2022-08-04T17:11:57;99598.09;;;31.16;34.68
66176;BME280;52977;44.816;20.538;2022-08-04T17:14:25;99598.72;;;31.11;34.40
66176;BME280;52977;44.816;20.538;2022-08-04T17:16:56;99600.41;;;31.09;34.31
66176;BME280;52977;44.816;20.538;2022-08-04T17:19:22;99605.91;;;31.03;34.40